Trow Hill, Vermont
Current Conditions -  °F | °C
As of 3:51 AM on Tuesday 21 Oct 2014 (Local Time) from KMPV Reporting Station
Light Rain Light Rain  
Wind Chill: 40°   Ceiling: 4600
Heat Index: 40°   Visibility: 8mi
Dew Point: 38°   Wind: 0mph
Humidity: 93%   Direction: NA
Pressure: 29.98"   Gusts: NA
Location:  44.1738°N, 72.4252°W
Report Text: KMPV 210751Z AUTO 00000KT 8SM -RA BKN046 OVC055 04/03 A2998 RMK AO2 RAB37 SLP161 P0000 T00440033 $
Loading
Personal Weather Stations






























Interactive Weather Map
Tropical Storm Tracking
New forecast layout! Learn more

10-Day Weather Forecast

Advertisements
Track Severe Weather on mobile